Meta, Kentucky
Current Conditions -  °F | °C
As of 10:55 PM on Sunday 23 Nov 2014 (Local Time) from KPBX Reporting Station
Broken Clouds Broken Clouds  
Wind Chill: 60°   Ceiling: 8500
Heat Index: 60°   Visibility: 10mi
Dew Point: 51°   Wind: 10mph
Humidity: 72%   Direction: 170°S
Pressure: 29.5"   Gusts: 28mph
Location:  37.5348°N, 82.513°W
Report Text: KPBX 240355Z AUTO 17009G24KT 130V210 10SM SCT050 BKN085 16/11 A2950 RMK AO2 T01560106
Loading
Personal Weather Stations






























Interactive Weather Map New forecast layout! Learn more

10-Day Weather Forecast

Advertisements
Track Severe Weather on mobile